Time;durP1;ratioP1;P1;durP2;ratioP2;P2;SDS_P1;SDS_P2;PMS_P1;PMS_P2;Temp;Humidity;BMP_temperature;BMP_pressure;BME280_temperature;BME280_humidity;BME280_pressure;Samples;Min_cycle;Max_cycle;Signal;HPM_P1;HPM_P2
2021/10/09 00:00:52;;;;;;;20.30;16.10;;;7.80;89.20;;;6.55;91.96;99024.50;5029070;28;20490;-76
2021/10/09 00:03:19;;;;;;;22.17;16.10;;;7.80;89.40;;;6.48;92.27;99019.81;5028379;28;20549;-77
2021/10/09 00:05:47;;;;;;;19.97;16.93;;;7.80;89.30;;;6.41;92.03;99013.41;5030090;28;20917;-77
2021/10/09 00:08:16;;;;;;;19.37;15.73;;;7.70;90.00;;;6.49;92.37;99018.81;5026507;28;20567;-76
2021/10/09 00:10:44;;;;;;;21.50;16.73;;;7.80;90.00;;;6.51;92.08;99024.84;5029392;28;20723;-77
2021/10/09 00:13:12;;;;;;;23.13;16.53;;;7.80;89.80;;;6.50;91.88;99025.84;5025061;28;20462;-75
2021/10/09 00:15:38;;;;;;;18.63;16.07;;;7.80;89.80;;;6.43;92.09;99023.97;5028154;28;20606;-76
2021/10/09 00:18:06;;;;;;;26.97;15.23;;;7.70;89.80;;;6.40;92.61;99022.47;5026971;28;20488;-77
2021/10/09 00:20:33;;;;;;;24.47;16.93;;;7.80;90.00;;;6.42;92.60;99027.69;5024667;28;20470;-76
2021/10/09 00:23:01;;;;;;;22.07;16.60;;;7.70;90.10;;;6.39;92.54;99015.41;5025379;28;20972;-75
2021/10/09 00:25:28;;;;;;;23.23;17.43;;;7.70;90.10;;;6.46;92.70;99037.06;5027288;28;20498;-76
2021/10/09 00:27:55;;;;;;;20.80;16.10;;;7.80;90.20;;;6.45;92.06;99025.50;5031258;28;20498;-76
2021/10/09 00:30:22;;;;;;;19.47;16.00;;;7.70;90.00;;;6.45;92.28;99030.88;5028119;28;20490;-76
2021/10/09 00:32:50;;;;;;;19.80;17.33;;;7.80;90.00;;;6.42;92.65;99020.44;5028313;28;20490;-75
2021/10/09 00:35:18;;;;;;;21.00;17.00;;;7.80;90.20;;;6.40;92.67;99019.78;5025545;28;20482;-75
2021/10/09 00:37:45;;;;;;;20.80;15.70;;;7.80;90.00;;;6.36;92.47;99021.94;5029435;28;20546;-75
2021/10/09 00:40:13;;;;;;;20.20;16.70;;;7.70;90.20;;;6.36;93.03;99021.13;5026265;28;20542;-75
2021/10/09 00:42:41;;;;;;;20.27;16.07;;;7.70;90.30;;;6.31;92.98;99010.88;5024816;28;21044;-76
2021/10/09 00:45:09;;;;;;;22.43;16.27;;;7.70;90.40;;;6.32;93.24;99011.72;5029204;28;20535;-78
2021/10/09 00:47:36;;;;;;;20.77;17.50;;;7.70;90.40;;;6.22;93.74;99017.22;5027131;28;20549;-76
2021/10/09 00:50:05;;;;;;;24.67;18.63;;;7.60;90.50;;;6.21;93.22;99013.69;5024739;28;20545;-75
2021/10/09 00:52:35;;;;;;;18.47;16.33;;;7.60;90.80;;;6.15;94.26;99009.00;5027772;28;20545;-75
2021/10/09 00:55:05;;;;;;;23.80;18.53;;;7.50;91.10;;;6.18;93.57;99011.34;5026465;28;20914;-76
2021/10/09 00:57:36;;;;;;;20.93;17.37;;;7.50;91.00;;;5.94;93.56;98980.69;5027669;28;20478;-76
2021/10/09 01:00:05;;;;;;;19.03;15.20;;;7.50;91.00;;;6.13;93.56;98996.72;5025368;28;20458;-75
2021/10/09 01:02:33;;;;;;;23.80;17.00;;;7.50;91.10;;;6.12;93.75;99003.91;5028335;28;20450;-76
2021/10/09 01:05:01;;;;;;;22.17;17.47;;;7.50;91.10;;;6.06;93.95;99015.31;5025647;28;20486;-76
2021/10/09 01:07:28;;;;;;;19.73;16.57;;;7.50;91.10;;;6.05;94.39;99013.63;5030538;28;21131;-75
2021/10/09 01:09:55;;;;;;;21.70;17.53;;;7.40;91.30;;;6.06;94.28;99015.31;5026727;28;20864;-75
2021/10/09 01:12:22;;;;;;;20.00;16.83;;;7.40;91.40;;;6.01;94.66;99006.88;5027791;28;20863;-78
2021/10/09 01:14:50;;;;;;;22.23;18.40;;;7.40;91.60;;;6.05;94.71;99013.63;5026747;28;20470;-75
2021/10/09 01:17:17;;;;;;;24.67;17.73;;;7.40;91.60;;;6.05;94.56;99008.28;5026407;28;20471;-76
2021/10/09 01:19:44;;;;;;;26.77;18.07;;;7.40;91.50;;;6.01;94.05;99005.06;5025596;28;20516;-76
2021/10/09 01:22:13;;;;;;;28.07;19.87;;;7.40;91.60;;;6.04;94.24;98998.53;5024842;28;20462;-76
2021/10/09 01:24:41;;;;;;;21.30;17.77;;;7.40;91.50;;;6.02;94.03;98992.50;5021223;28;20490;-75
2021/10/09 01:27:08;;;;;;;23.17;17.47;;;7.40;91.50;;;6.10;93.88;98995.19;5027037;28;20990;-75
2021/10/09 01:29:35;;;;;;;21.47;16.73;;;7.40;91.40;;;6.08;93.98;98991.84;5026485;28;20465;-76
2021/10/09 01:32:03;;;;;;;24.80;17.50;;;7.50;91.00;;;6.14;93.68;99001.94;5025190;28;20549;-74
2021/10/09 01:34:31;;;;;;;21.83;15.83;;;7.50;90.90;;;6.10;93.37;98987.16;5037804;28;20474;-73
2021/10/09 01:36:58;;;;;;;22.70;16.93;;;7.50;90.80;;;6.15;93.29;98998.25;5029355;28;20596;-75
2021/10/09 01:39:27;;;;;;;20.03;15.33;;;7.50;90.70;;;6.12;93.32;98987.81;5025922;28;20466;-76
2021/10/09 01:41:54;;;;;;;19.60;15.57;;;7.50;90.60;;;6.15;93.36;98998.25;5022491;28;20465;-77
2021/10/09 01:44:21;;;;;;;19.93;17.07;;;7.50;90.60;;;6.14;93.71;98993.88;5020910;28;20486;-77
2021/10/09 01:46:48;;;;;;;22.73;17.67;;;7.50;90.70;;;6.05;93.53;98989.50;5023246;28;21068;-77
2021/10/09 01:49:15;;;;;;;22.73;18.13;;;7.40;90.70;;;6.06;93.82;98999.22;5020826;28;20462;-75
2021/10/09 01:51:42;;;;;;;24.47;17.40;;;7.40;90.70;;;6.01;93.58;98991.66;5018570;28;20454;-75
2021/10/09 01:54:09;;;;;;;27.70;17.70;;;7.40;90.90;;;5.95;93.63;98997.63;5023608;28;21149;-75
2021/10/09 01:56:39;;;;;;;22.77;17.57;;;7.40;91.10;;;5.96;93.87;98997.47;5041555;28;20492;-75
2021/10/09 01:59:07;;;;;;;22.73;16.40;;;7.30;91.20;;;6.02;93.55;98997.88;5027049;28;21140;-76
2021/10/09 02:01:34;;;;;;;21.37;16.73;;;7.40;91.10;;;5.89;94.15;98983.03;5019003;28;20969;-78
2021/10/09 02:04:02;;;;;;;30.20;17.90;;;7.30;91.00;;;5.98;93.68;98993.78;5025261;28;20461;-78
2021/10/09 02:06:29;;;;;;;23.70;17.70;;;7.30;91.10;;;5.92;93.80;98982.69;5017047;28;20970;-78
2021/10/09 02:08:57;;;;;;;22.50;16.73;;;7.30;91.10;;;5.95;94.35;98998.47;5023642;28;20498;-77
2021/10/09 02:11:26;;;;;;;21.07;15.90;;;7.30;91.20;;;5.92;93.76;98995.28;5023892;28;21033;-76
2021/10/09 02:14:00;;;;;;;24.53;17.97;;;7.30;91.20;;;5.91;94.27;98986.38;5029081;28;20463;-77
2021/10/09 02:17:06;;;;;;;21.07;16.87;;;7.30;91.50;;;5.98;93.69;98985.72;5036848;28;20482;-78
2021/10/09 02:25:15;;;;;;;24.73;17.63;;;7.30;91.00;;;5.89;94.42;98985.72;5024367;28;20481;-79
2021/10/09 02:27:42;;;;;;;23.37;17.03;;;7.30;91.20;;;5.87;94.08;98985.03;5027007;28;20567;-77
2021/10/09 02:30:11;;;;;;;21.37;17.63;;;7.20;91.30;;;5.86;94.57;98986.03;5024273;28;20646;-78
2021/10/09 02:32:38;;;;;;;22.47;17.30;;;7.20;91.30;;;5.82;94.16;98981.97;5025693;28;20480;-78
2021/10/09 02:35:07;;;;;;;24.97;18.53;;;7.20;91.40;;;5.78;94.91;98994.03;5023261;28;21167;-77
2021/10/09 02:37:34;;;;;;;25.53;18.97;;;7.20;91.60;;;5.67;95.01;98979.91;5027584;28;20474;-77
2021/10/09 02:40:01;;;;;;;26.53;19.80;;;7.10;91.60;;;5.73;94.85;98982.97;5024468;28;20451;-77
2021/10/09 02:42:27;;;;;;;22.37;17.67;;;7.10;92.00;;;5.74;95.38;98990.81;5024751;28;20472;-78
2021/10/09 02:44:54;;;;;;;25.13;17.03;;;7.10;91.90;;;5.74;95.18;98979.28;5025770;28;20808;-79
2021/10/09 02:47:23;;;;;;;25.07;17.83;;;7.10;91.80;;;5.77;95.04;98984.31;5025367;28;20455;-78
2021/10/09 02:49:50;;;;;;;23.43;18.20;;;7.10;91.70;;;5.74;95.00;98985.47;5021815;28;20549;-78
2021/10/09 02:52:17;;;;;;;24.07;16.53;;;7.10;91.80;;;5.73;94.40;98975.75;5025665;28;20513;-79
2021/10/09 02:54:44;;;;;;;22.47;17.87;;;7.10;91.70;;;5.77;94.19;98978.94;5025759;28;20470;-78
2021/10/09 02:57:12;;;;;;;26.47;17.97;;;7.10;91.60;;;5.76;94.07;98977.25;5026468;28;20480;-77
2021/10/09 02:59:39;;;;;;;24.90;19.20;;;7.10;91.40;;;5.71;94.66;98982.28;5026659;28;20462;-78
2021/10/09 03:02:06;;;;;;;24.40;18.23;;;7.10;91.50;;;5.75;94.18;98986.31;5021378;28;20549;-77
2021/10/09 03:04:34;;;;;;;24.57;19.30;;;7.10;91.60;;;5.71;94.40;98987.66;5026724;28;20474;-78
2021/10/09 03:07:01;;;;;;;23.40;18.60;;;7.10;91.50;;;5.70;94.65;98983.28;5025077;28;20841;-77
2021/10/09 03:09:28;;;;;;;26.23;19.73;;;7.10;91.50;;;5.65;95.05;98984.59;5026204;28;20458;-77
2021/10/09 03:11:55;;;;;;;27.17;19.90;;;7.00;91.70;;;5.64;95.24;98982.91;5024822;28;20466;-76
2021/10/09 03:14:24;;;;;;;26.47;18.93;;;7.00;91.80;;;5.64;94.66;98984.75;5023722;28;20485;-77
2021/10/09 03:16:51;;;;;;;28.27;19.40;;;7.00;91.80;;;5.64;95.09;98985.59;5025629;28;20481;-77
2021/10/09 03:19:18;;;;;;;27.77;20.70;;;7.00;91.80;;;5.68;94.70;98984.25;5020564;28;20454;-76
2021/10/09 03:21:46;;;;;;;25.20;20.27;;;7.00;91.70;;;5.68;94.40;98989.63;5024904;28;20544;-77
2021/10/09 03:24:13;;;;;;;28.50;19.73;;;7.00;91.60;;;5.70;94.31;98978.75;5023846;28;20463;-76
2021/10/09 03:26:40;;;;;;;25.73;20.87;;;7.00;91.40;;;5.63;94.23;98986.59;5021719;28;20549;-76
2021/10/09 03:29:07;;;;;;;25.83;20.90;;;7.00;91.60;;;5.60;94.47;98978.88;5025555;28;20464;-77
2021/10/09 03:31:34;;;;;;;28.93;20.90;;;7.00;91.80;;;5.56;95.34;98977.50;5023264;28;20874;-77
2021/10/09 03:34:01;;;;;;;27.20;20.47;;;6.90;92.00;;;5.61;94.70;98985.91;5025550;28;20466;-77
2021/10/09 03:36:28;;;;;;;25.70;20.30;;;6.90;91.90;;;5.63;94.25;98981.22;5024328;28;20450;-77
2021/10/09 03:38:57;;;;;;;30.93;20.93;;;6.90;91.70;;;5.62;94.23;98982.22;5025459;28;20454;-77
2021/10/09 03:41:24;;;;;;;32.00;20.30;;;7.00;91.50;;;5.62;94.30;98979.53;5023193;28;20462;-76
2021/10/09 03:43:51;;;;;;;29.03;21.53;;;7.00;91.50;;;5.51;94.17;98969.09;5022433;28;20537;-76
2021/10/09 03:46:21;;;;;;;24.93;20.03;;;7.00;91.50;;;5.56;94.92;98982.03;5024152;28;20471;-77
2021/10/09 03:48:58;;;;;;;25.37;19.27;;;6.90;91.50;;;5.57;94.88;98984.56;5023819;28;20512;-77
2021/10/09 03:54:11;;;;;;;30.87;21.67;;;6.90;91.70;;;5.49;94.98;98982.66;5027408;28;21060;-75
2021/10/09 03:56:38;;;;;;;32.00;21.60;;;6.90;91.80;;;5.47;95.19;98984.69;5028566;28;20540;-76
2021/10/09 03:59:05;;;;;;;35.80;22.40;;;6.80;91.70;;;5.42;95.60;99004.91;5029993;28;20478;-74
2021/10/09 04:01:32;;;;;;;29.03;20.43;;;6.80;92.00;;;5.45;94.72;98991.19;5026461;28;20475;-75
2021/10/09 04:04:00;;;;;;;28.10;21.70;;;6.80;91.80;;;5.36;95.36;98992.97;5028674;28;20457;-76
2021/10/09 04:06:27;;;;;;;31.57;21.00;;;6.70;92.00;;;5.25;95.00;98992.22;5030867;28;20819;-76
2021/10/09 04:08:54;;;;;;;32.00;22.60;;;6.60;91.80;;;5.08;95.22;98959.16;5030225;28;20485;-76
2021/10/09 04:11:22;;;;;;;28.47;22.10;;;6.60;92.70;;;5.30;95.45;98994.44;5029930;28;21013;-77
2021/10/09 04:13:49;;;;;;;27.00;20.70;;;6.70;92.30;;;5.25;95.25;98994.91;5026407;28;20912;-77
2021/10/09 04:16:16;;;;;;;29.03;20.93;;;6.60;92.50;;;5.31;95.49;98981.91;5025618;28;20482;-76
2021/10/09 04:18:43;;;;;;;30.90;21.87;;;6.60;92.50;;;5.33;95.33;98986.09;5039929;28;20485;-76
2021/10/09 04:21:10;;;;;;;30.43;22.80;;;6.60;92.30;;;5.31;95.10;98982.72;5029421;28;20470;-77
2021/10/09 04:23:37;;;;;;;29.00;21.60;;;6.70;92.20;;;5.30;95.45;98988.22;5024525;28;20543;-77
2021/10/09 04:26:04;;;;;;;26.63;22.00;;;6.70;92.20;;;5.29;95.35;98984.72;5023950;28;20557;-77
2021/10/09 04:28:34;;;;;;;30.97;22.00;;;6.70;92.20;;;5.25;95.80;98986.03;5026962;28;20829;-76
2021/10/09 04:31:01;;;;;;;30.63;23.10;;;6.70;92.10;;;5.29;95.74;98987.41;5026830;28;20439;-76
2021/10/09 04:33:30;;;;;;;30.00;24.10;;;6.70;92.30;;;5.30;95.05;98983.72;5027450;28;20822;-76
2021/10/09 04:35:57;;;;;;;28.87;22.47;;;6.70;92.20;;;5.24;95.29;98987.03;5027676;28;20478;-76
2021/10/09 04:38:23;;;;;;;31.77;22.90;;;6.70;92.10;;;5.27;94.92;98978.69;5028075;28;20476;-77
2021/10/09 04:40:50;;;;;;;30.50;22.20;;;6.70;92.10;;;5.28;95.45;98985.72;5029383;28;20457;-77
2021/10/09 04:43:18;;;;;;;36.10;23.47;;;6.70;92.20;;;5.28;95.12;98980.38;5023640;28;20494;-77
2021/10/09 04:45:46;;;;;;;33.30;25.13;;;6.60;92.10;;;5.30;95.05;98982.88;5026645;28;20861;-77
2021/10/09 04:48:13;;;;;;;32.57;23.30;;;6.60;92.00;;;5.28;94.77;98985.72;5042812;28;20545;-76
2021/10/09 04:50:40;;;;;;;28.97;24.03;;;6.70;91.90;;;5.25;94.87;98986.03;5026880;28;20462;-77
2021/10/09 04:53:07;;;;;;;32.27;23.67;;;6.60;91.80;;;5.06;95.77;98969.16;5025424;28;20544;-76
2021/10/09 04:55:34;;;;;;;36.33;23.37;;;6.60;92.00;;;5.17;95.29;98994.88;5025427;28;20497;-76
2021/10/09 04:58:01;;;;;;;36.33;24.70;;;6.60;92.30;;;5.08;95.23;98991.28;5022755;28;20532;-77
2021/10/09 05:00:29;;;;;;;33.30;22.20;;;6.50;92.30;;;5.07;96.00;98997.63;5019278;28;20479;-77
2021/10/09 05:02:58;;;;;;;32.77;23.20;;;6.50;92.70;;;4.98;95.96;98998.56;5023911;28;20458;-78
2021/10/09 05:05:25;;;;;;;35.53;25.40;;;6.40;92.90;;;5.00;96.35;99004.59;5023734;28;20861;-79
2021/10/09 05:07:52;;;;;;;32.97;24.27;;;6.40;92.80;;;4.99;96.08;99000.25;5023286;28;20475;-80
2021/10/09 05:10:19;;;;;;;39.23;26.20;;;6.40;92.90;;;5.00;96.37;98995.72;5028152;28;20463;-80
2021/10/09 05:12:46;;;;;;;38.93;25.80;;;6.40;92.90;;;5.04;95.59;98995.25;5025875;28;20466;-79
2021/10/09 05:15:13;;;;;;;35.23;23.77;;;6.40;92.80;;;5.02;95.39;98999.94;5027646;28;20570;-78
2021/10/09 05:17:40;;;;;;;32.70;23.93;;;6.40;92.60;;;4.95;95.09;98980.13;5023640;28;21126;-78
2021/10/09 05:20:10;;;;;;;36.87;25.93;;;6.40;92.40;;;4.92;95.90;99001.84;5027952;28;20451;-79
2021/10/09 05:22:37;;;;;;;39.07;25.13;;;6.40;92.50;;;4.88;96.06;99006.69;5023689;28;20970;-78
2021/10/09 05:25:06;;;;;;;35.40;25.50;;;6.30;92.40;;;4.83;96.25;99000.94;5027153;28;20473;-78
2021/10/09 05:27:35;;;;;;;34.37;26.00;;;6.20;93.00;;;4.86;95.89;99007.84;5021349;28;20557;-78
2021/10/09 05:30:06;;;;;;;37.30;25.60;;;6.20;92.80;;;4.89;96.25;99007.53;5021728;28;20454;-77
2021/10/09 05:32:35;;;;;;;39.63;23.90;;;6.30;92.90;;;4.74;95.90;98978.63;5019274;28;20495;-75
2021/10/09 05:35:03;;;;;;;38.90;24.57;;;6.30;92.80;;;4.86;95.98;99005.16;5027348;28;20474;-78
2021/10/09 05:37:32;;;;;;;36.90;25.43;;;6.20;92.70;;;4.72;96.47;99018.09;5027576;28;20480;-77
2021/10/09 05:39:59;;;;;;;38.70;26.83;;;6.10;92.70;;;4.75;97.06;99023.13;5021606;28;20838;-77
2021/10/09 05:42:26;;;;;;;36.07;26.80;;;6.10;93.20;;;4.66;96.24;99018.72;5023639;28;20470;-74
2021/10/09 05:44:53;;;;;;;33.30;25.20;;;6.10;93.20;;;4.59;97.46;99026.50;5020017;28;20573;-73
2021/10/09 05:47:20;;;;;;;36.50;25.53;;;6.00;93.20;;;4.42;97.54;99022.00;5026200;28;20465;-77
2021/10/09 05:49:51;;;;;;;34.87;25.20;;;5.90;94.00;;;4.50;98.79;99028.25;5019929;28;20459;-83
2021/10/09 05:52:23;;;;;;;39.40;26.30;;;5.80;95.50;;;4.59;97.62;99028.34;5025589;28;20597;-83
2021/10/09 05:54:56;;;;;;;34.50;25.40;;;5.90;95.10;;;4.59;97.40;99022.97;5021817;28;20474;-83
2021/10/09 05:57:30;;;;;;;39.77;26.50;;;6.00;94.20;;;4.52;97.48;99028.94;5023246;28;20483;-82
2021/10/09 06:00:29;;;;;;;33.00;25.93;;;5.90;94.30;;;4.66;97.15;99032.09;5027942;28;20461;-84
2021/10/09 06:25:36;;;;;;;32.87;23.30;;;6.20;92.60;;;4.82;94.91;99024.22;5023632;28;20482;-83
2021/10/09 06:47:25;;;;;;;38.10;26.60;;;6.70;90.40;;;5.56;92.58;99067.81;5022667;28;20964;-85
2021/10/09 07:00:47;;;;;;;36.13;25.50;;;7.10;86.50;;;5.93;89.00;99075.59;5020385;28;20454;-77
2021/10/09 07:03:18;;;;;;;30.30;24.90;;;7.20;85.30;;;5.94;89.11;99071.91;5016936;28;20529;-75
2021/10/09 07:05:46;;;;;;;31.73;24.67;;;7.30;84.60;;;5.93;88.39;99074.75;5020090;28;20544;-75
2021/10/09 07:08:13;;;;;;;32.17;23.60;;;7.30;83.60;;;5.97;88.09;99073.44;5021915;28;21582;-76
2021/10/09 07:10:45;;;;;;;30.27;21.47;;;7.30;83.50;;;6.05;87.14;99072.66;5025477;28;20959;-76
2021/10/09 07:13:13;;;;;;;28.37;21.53;;;7.40;82.50;;;6.22;87.23;99077.09;5023396;28;20536;-75
2021/10/09 07:15:40;;;;;;;38.10;26.97;;;7.50;82.60;;;6.32;86.05;99079.66;5021454;28;20486;-76
2021/10/09 07:18:11;;;;;;;37.30;23.30;;;7.60;81.70;;;6.35;85.13;99090.06;5018518;28;20481;-75
2021/10/09 07:20:40;;;;;;;30.23;22.10;;;7.70;80.30;;;6.37;85.55;99093.44;5024135;28;20486;-74
2021/10/09 07:23:08;;;;;;;29.43;22.17;;;7.70;80.40;;;6.49;84.10;99098.50;5020088;28;20502;-74
2021/10/09 07:25:35;;;;;;;27.57;23.20;;;7.80;79.30;;;6.49;84.76;99091.28;5022396;28;20505;-74
2021/10/09 07:28:04;;;;;;;31.10;22.60;;;7.80;79.70;;;6.56;83.62;99096.84;5022248;28;20458;-75
2021/10/09 07:30:31;;;;;;;33.17;22.50;;;7.90;78.80;;;6.72;83.56;99089.84;5026787;28;20636;-75
2021/10/09 07:32:58;;;;;;;29.17;22.07;;;8.00;78.70;;;6.82;82.64;99089.69;5027838;28;20895;-75
2021/10/09 07:35:27;;;;;;;31.63;22.70;;;8.10;78.00;;;6.91;83.78;99094.91;5026889;28;20506;-75
2021/10/09 07:37:54;;;;;;;29.53;21.03;;;8.20;79.00;;;7.11;81.91;99101.84;5025788;28;20477;-75
2021/10/09 07:40:21;;;;;;;30.63;22.33;;;8.30;77.40;;;7.21;80.74;99097.97;5021943;28;20462;-76
2021/10/09 07:42:48;;;;;;;26.37;20.20;;;8.40;76.50;;;7.12;79.54;99090.91;5026239;28;20493;-76
2021/10/09 07:45:16;;;;;;;25.50;20.80;;;8.50;74.40;;;7.20;78.83;99098.13;5026091;28;20478;-74
2021/10/09 07:47:43;;;;;;;29.33;20.30;;;8.50;73.80;;;7.12;78.91;99100.81;5027172;28;20477;-74
2021/10/09 07:50:11;;;;;;;26.87;20.10;;;8.40;73.20;;;7.18;77.89;99101.00;5022324;28;20466;-75
2021/10/09 07:52:42;;;;;;;25.33;20.87;;;8.50;72.20;;;7.18;76.76;99095.63;5022501;28;20462;-74
2021/10/09 07:55:10;;;;;;;24.80;18.03;;;8.50;71.10;;;7.22;77.34;99104.22;5028138;28;20474;-75
2021/10/09 07:57:37;;;;;;;22.10;17.57;;;8.50;71.00;;;7.26;76.23;99107.38;5023323;28;20569;-75
2021/10/09 08:00:06;;;;;;;28.57;19.20;;;8.60;70.30;;;7.35;77.03;99101.88;5026789;28;20458;-75
2021/10/09 08:02:35;;;;;;;21.83;17.90;;;8.60;71.00;;;7.70;76.16;99103.50;5022628;28;20984;-75
2021/10/09 08:05:03;;;;;;;27.90;17.93;;;8.80;71.30;;;7.70;75.30;99098.97;5023642;28;20565;-74
2021/10/09 08:07:31;;;;;;;19.30;17.20;;;8.90;69.30;;;7.85;73.47;99098.25;5024227;28;20458;-74
2021/10/09 08:09:59;;;;;;;23.40;17.83;;;9.10;68.60;;;7.77;73.78;99083.81;5026931;28;20462;-74
2021/10/09 08:12:26;;;;;;;21.43;19.10;;;9.00;67.70;;;7.77;72.33;99085.66;5025740;28;20474;-75
2021/10/09 08:14:53;;;;;;;21.33;17.53;;;9.10;66.60;;;7.83;72.22;99087.69;5031739;28;21034;-73
2021/10/09 08:17:20;;;;;;;24.13;19.20;;;9.10;66.40;;;7.98;72.75;99092.38;5021535;28;20494;-75
2021/10/09 08:19:47;;;;;;;24.27;17.03;;;9.20;66.80;;;8.01;72.18;99090.16;5023675;28;20465;-74
2021/10/09 08:22:14;;;;;;;29.20;17.60;;;9.30;66.20;;;8.17;72.12;99093.81;5027880;28;20455;-74
2021/10/09 08:24:47;;;;;;;23.67;16.00;;;9.30;66.20;;;8.29;69.75;99089.72;5023884;28;20510;-74
2021/10/09 08:35:37;;;;;;;21.63;16.80;;;9.60;63.70;;;8.43;69.11;99093.56;5023590;28;20513;-72
2021/10/09 08:40:50;;;;;;;35.70;17.70;;;9.70;63.40;;;8.79;69.14;99087.66;5020201;28;20463;-70
2021/10/09 08:43:18;;;;;;;20.10;14.90;;;9.90;63.90;;;8.72;67.43;99089.41;5009230;28;21020;-71
2021/10/09 08:45:47;;;;;;;20.47;15.63;;;10.00;61.60;;;8.78;68.63;99091.38;5019566;28;20492;-74
2021/10/09 08:48:16;;;;;;;24.00;17.37;;;10.00;61.70;;;8.93;67.00;99094.13;5020932;28;20462;-73
2021/10/09 08:50:45;;;;;;;20.23;15.83;;;10.10;61.40;;;9.04;67.35;99095.59;5024173;28;20524;-73
2021/10/09 08:53:14;;;;;;;19.87;14.80;;;10.20;61.40;;;9.17;67.29;99097.69;5019581;28;20653;-72
2021/10/09 08:55:47;;;;;;;18.27;14.27;;;10.30;61.40;;;9.23;66.38;99097.97;5039808;28;20470;-74
2021/10/09 08:58:31;;;;;;;20.53;14.97;;;10.40;60.70;;;9.32;65.59;99097.72;5025014;28;20481;-73
2021/10/09 09:01:07;;;;;;;20.50;15.57;;;10.50;60.40;;;9.34;65.86;99111.91;5024724;28;21025;-74
2021/10/09 09:04:06;;;;;;;20.27;16.00;;;10.60;59.90;;;9.56;65.41;99098.56;5017145;28;20968;-73
2021/10/09 09:07:04;;;;;;;18.10;14.67;;;10.70;60.00;;;9.66;65.36;99097.47;5021777;28;20473;-72
2021/10/09 09:26:18;;;;;;;18.00;14.30;;;10.90;58.20;;;9.75;63.94;99088.25;4970322;28;20621;-69
2021/10/09 09:31:46;;;;;;;22.90;15.07;;;11.00;58.10;;;9.92;63.26;99092.47;5021644;28;20458;-83
2021/10/09 09:34:20;;;;;;;18.40;15.37;;;11.10;58.20;;;9.89;63.50;99092.84;5021399;28;20808;-82
2021/10/09 09:37:06;;;;;;;19.37;15.30;;;11.10;58.00;;;10.02;62.75;99085.97;5024680;28;20805;-82
2021/10/09 09:39:38;;;;;;;16.80;15.00;;;11.20;58.00;;;10.03;62.67;99090.34;5023475;28;20507;-86
2021/10/09 09:42:06;;;;;;;19.80;14.63;;;11.20;57.50;;;10.04;62.92;99095.56;5029884;28;20450;-85
2021/10/09 09:44:34;;;;;;;19.00;15.63;;;11.20;57.40;;;10.24;63.10;99094.16;5034640;28;20615;-84
2021/10/09 09:47:05;;;;;;;16.50;14.57;;;11.40;57.90;;;10.39;62.70;99092.28;5022625;28;20461;-85
2021/10/09 09:49:33;;;;;;;15.80;13.83;;;11.50;57.80;;;10.43;62.26;99095.47;5021339;28;20447;-85
2021/10/09 09:52:01;;;;;;;19.57;14.67;;;11.60;57.50;;;10.45;62.29;99094.25;5017954;28;20827;-84
2021/10/09 09:54:32;;;;;;;20.00;14.70;;;11.60;57.30;;;10.41;61.84;99092.97;5021104;28;21041;-80
2021/10/09 09:57:01;;;;;;;18.03;14.20;;;11.70;57.00;;;10.39;61.19;99096.84;5020058;28;20520;-83
2021/10/09 09:59:31;;;;;;;19.50;14.80;;;11.60;57.00;;;10.30;62.73;99093.41;5019483;28;20510;-83
2021/10/09 10:02:04;;;;;;;18.03;14.47;;;11.50;57.10;;;10.40;61.35;99093.97;5021061;28;21287;-85
2021/10/09 10:04:34;;;;;;;15.67;13.53;;;11.60;57.00;;;10.53;62.02;99084.38;5024077;28;20508;-85
2021/10/09 10:07:03;;;;;;;20.90;14.17;;;11.70;57.10;;;10.58;61.82;99084.66;5017972;28;20505;-89
2021/10/09 10:09:34;;;;;;;19.20;13.80;;;11.80;57.10;;;10.67;61.46;99083.50;5021614;28;20518;-86
2021/10/09 10:12:06;;;;;;;21.90;15.10;;;11.90;57.20;;;10.85;61.50;99095.78;5020920;28;20520;-84
2021/10/09 10:14:34;;;;;;;18.70;13.47;;;12.00;57.00;;;10.77;60.65;99092.16;5020234;28;20484;-86
2021/10/09 10:17:05;;;;;;;16.97;13.53;;;12.00;56.60;;;10.98;61.13;99087.78;5018622;28;20451;-84
2021/10/09 10:20:03;;;;;;;15.27;13.53;;;12.10;57.00;;;10.87;60.44;99078.31;5021420;28;20561;-83
2021/10/09 10:22:58;;;;;;;17.67;13.53;;;12.10;56.30;;;10.91;60.41;99086.91;4975271;28;21019;-69
2021/10/09 10:25:43;;;;;;;18.93;14.10;;;12.10;56.20;;;10.90;60.38;99087.94;5019635;28;20950;-74
2021/10/09 10:28:16;;;;;;;18.80;13.80;;;12.10;56.30;;;11.16;60.19;99089.25;5021754;28;20798;-75
2021/10/09 10:30:45;;;;;;;15.80;14.03;;;12.20;56.30;;;11.20;59.55;99091.34;5023100;28;20573;-78
2021/10/09 10:33:40;;;;;;;16.57;13.27;;;12.30;56.00;;;11.19;59.36;99092.38;5022469;28;20473;-75
2021/10/09 10:36:11;;;;;;;18.53;14.50;;;12.40;55.60;;;11.33;59.95;99087.94;5020391;28;20474;-74
2021/10/09 10:38:53;;;;;;;19.17;14.10;;;12.50;56.30;;;11.44;59.09;99088.44;5023930;28;20470;-75
2021/10/09 10:41:42;;;;;;;16.73;14.80;;;12.50;55.70;;;11.41;59.12;99080.72;5025755;28;20969;-74
2021/10/09 10:44:12;;;;;;;19.07;14.33;;;12.60;55.60;;;11.46;59.20;99089.09;5022731;28;20474;-74
2021/10/09 10:46:54;;;;;;;17.27;13.03;;;12.60;55.60;;;11.48;59.21;99079.72;5020865;28;20610;-75
2021/10/09 10:49:48;;;;;;;20.33;14.73;;;12.60;55.50;;;11.59;58.85;99091.06;5022097;28;20467;-76
2021/10/09 10:52:50;;;;;;;16.20;12.50;;;12.70;55.80;;;11.77;58.92;99087.88;5017967;28;20461;-77
2021/10/09 10:55:17;;;;;;;15.30;13.40;;;12.90;55.70;;;11.68;58.19;99079.06;5022035;28;20514;-83
2021/10/09 10:58:19;;;;;;;13.70;12.20;;;12.90;55.10;;;11.90;59.37;99087.97;5021303;28;20450;-78
2021/10/09 11:01:15;;;;;;;19.47;13.63;;;12.90;55.90;;;12.16;58.44;99091.91;5024077;28;20555;-78
2021/10/09 11:03:48;;;;;;;13.77;11.97;;;13.20;55.50;;;12.10;57.98;99095.41;5021215;28;20950;-75
2021/10/09 11:06:18;;;;;;;18.93;13.80;;;13.20;55.10;;;11.98;57.31;99091.56;5019630;28;20975;-79
2021/10/09 11:08:46;;;;;;;15.97;13.43;;;13.20;54.70;;;12.01;57.34;99080.31;5023497;28;20442;-79
2021/10/09 11:11:16;;;;;;;18.23;13.00;;;13.20;54.90;;;12.12;58.14;99079.81;5024292;28;20454;-78
2021/10/09 11:13:50;;;;;;;16.77;14.43;;;13.20;55.20;;;12.22;56.92;99084.03;5032967;28;20450;-77
2021/10/09 11:16:17;;;;;;;18.13;13.70;;;13.30;54.70;;;12.13;56.98;99080.63;5033144;28;20482;-78
2021/10/09 11:18:52;;;;;;;17.43;12.83;;;13.30;54.40;;;12.19;56.78;99075.25;5025774;28;20481;-77
2021/10/09 11:21:21;;;;;;;13.67;12.27;;;13.30;54.20;;;12.34;57.18;99071.56;5026739;28;21014;-78
2021/10/09 11:23:50;;;;;;;15.07;10.80;;;13.40;54.70;;;12.40;56.45;99062.66;5028315;28;20550;-78
2021/10/09 11:26:18;;;;;;;15.53;11.50;;;13.50;54.40;;;12.48;56.24;99061.63;5023393;28;20451;-79
2021/10/09 11:28:46;;;;;;;17.23;12.27;;;13.60;54.20;;;12.56;56.31;99066.03;5024293;28;20464;-79
2021/10/09 11:31:23;;;;;;;14.60;12.70;;;13.60;54.50;;;12.43;56.26;99056.81;5021542;28;20538;-78
2021/10/09 11:33:56;;;;;;;19.37;14.07;;;13.50;54.10;;;12.58;55.22;99066.69;5018796;28;20544;-79
2021/10/09 11:36:25;;;;;;;13.67;12.23;;;13.60;53.50;;;12.56;55.62;99063.34;5022970;28;20450;-80
2021/10/09 11:39:05;;;;;;;14.50;11.60;;;13.70;53.80;;;12.67;55.53;99065.47;5023213;28;20983;-79
2021/10/09 11:41:32;;;;;;;22.37;11.57;;;13.70;53.90;;;12.84;54.45;99062.38;5019936;28;20446;-77
2021/10/09 11:44:03;;;;;;;16.70;11.77;;;13.90;53.60;;;12.89;54.69;99051.75;5022449;28;20450;-76
2021/10/09 11:46:52;;;;;;;15.07;12.00;;;13.90;53.50;;;12.88;54.56;99063.63;5016232;28;20470;-76
2021/10/09 11:55:17;;;;;;;12.90;11.47;;;14.00;53.40;;;13.01;53.96;99055.53;5019261;28;20531;-76
2021/10/09 11:57:44;;;;;;;12.63;11.07;;;14.10;53.00;;;13.02;53.70;99046.34;5022214;28;20472;-77
2021/10/09 12:00:43;;;;;;;16.73;10.20;;;14.10;52.90;;;13.10;53.39;99048.03;5020094;28;20502;-75
2021/10/09 12:03:36;;;;;;;19.80;12.20;;;14.20;52.70;;;13.09;53.66;99049.06;5020230;28;20458;-75
2021/10/09 12:06:11;;;;;;;12.20;10.00;;;14.20;52.60;;;13.16;54.50;99051.81;5022469;28;20868;-75